createdAt,value
2023-04-07T00:02:25.919Z,65172.94
2023-04-07T00:07:33.852Z,65180.78
2023-04-07T00:12:41.198Z,65185.16
2023-04-07T00:17:45.289Z,65187.59
2023-04-07T00:22:50.668Z,65204.84
2023-04-07T00:27:54.555Z,65197.91
2023-04-07T00:32:58.681Z,65201.44
2023-04-07T00:38:04.395Z,65220.69
2023-04-07T00:43:08.308Z,65212.81
2023-04-07T00:48:12.272Z,65165.38
2023-04-07T00:53:18.244Z,65195.91
2023-04-07T00:58:22.968Z,65188.88
2023-04-07T01:03:32.853Z,65196.22
2023-04-07T01:08:44.781Z,65191.00
2023-04-07T01:13:52.384Z,65239.41
2023-04-07T01:19:17.070Z,65236.75
2023-04-07T01:25:11.587Z,65178.69
2023-04-07T01:30:18.244Z,65255.38
2023-04-07T01:35:24.196Z,65250.03
2023-04-07T01:40:30.540Z,65206.84
2023-04-07T01:45:37.549Z,65232.91
2023-04-07T01:50:42.699Z,65211.63
2023-04-07T01:55:46.870Z,65261.75
2023-04-07T02:00:52.642Z,65256.84
2023-04-07T02:06:05.416Z,65234.63
2023-04-07T02:11:12.911Z,65227.81
2023-04-07T02:16:20.005Z,65235.16
2023-04-07T02:21:25.040Z,65221.31
2023-04-07T02:26:28.982Z,65205.25
2023-04-07T02:31:35.655Z,65213.88
2023-04-07T02:36:39.774Z,65206.09
2023-04-07T02:41:44.063Z,65176.84
2023-04-07T02:46:49.360Z,65236.66
2023-04-07T02:51:53.493Z,65186.31
2023-04-07T02:56:57.901Z,65171.84
2023-04-07T03:02:04.251Z,65181.75
2023-04-07T03:07:08.369Z,65189.41
2023-04-07T03:12:12.849Z,65202.59
2023-04-07T03:17:18.151Z,65208.56
2023-04-07T03:22:22.839Z,65179.41
2023-04-07T03:27:29.367Z,65211.75
2023-04-07T03:32:35.328Z,65173.88
2023-04-07T03:37:39.444Z,65197.91
2023-04-07T03:42:49.653Z,65202.59
2023-04-07T03:47:55.753Z,65206.22
2023-04-07T03:52:59.887Z,65163.78
2023-04-07T03:58:07.323Z,65176.66
2023-04-07T04:03:15.311Z,65181.97
2023-04-07T04:08:42.499Z,65161.75
2023-04-07T04:13:47.113Z,65161.88
2023-04-07T04:18:52.489Z,65204.72
2023-04-07T04:23:58.110Z,65179.50
2023-04-07T04:29:04.007Z,65174.09
2023-04-07T04:34:09.526Z,65210.47
2023-04-07T04:39:13.973Z,65207.16
2023-04-07T04:44:18.103Z,65189.31
2023-04-07T04:49:23.596Z,65202.28
2023-04-07T04:54:28.765Z,65193.66
2023-04-07T04:59:35.113Z,65202.16
2023-04-07T05:04:42.875Z,65253.22
2023-04-07T05:10:08.634Z,65295.81
2023-04-07T05:15:16.334Z,65186.84
2023-04-07T05:20:25.455Z,65183.03
2023-04-07T05:25:29.634Z,65192.19
2023-04-07T05:30:37.204Z,65199.59
2023-04-07T05:35:45.534Z,65234.09
2023-04-07T05:40:50.678Z,65252.81
2023-04-07T05:46:02.862Z,65286.22
2023-04-07T05:51:09.616Z,65324.13
2023-04-07T05:56:13.820Z,65248.00
2023-04-07T06:01:21.557Z,65299.53
2023-04-07T06:06:27.894Z,65271.31
2023-04-07T06:11:32.517Z,65258.56
2023-04-07T06:16:36.515Z,65301.66
2023-04-07T06:21:41.907Z,65292.16
2023-04-07T06:26:46.773Z,65300.78
2023-04-07T06:31:50.696Z,65247.47
2023-04-07T06:36:58.351Z,65249.50
2023-04-07T06:42:03.382Z,65245.78
2023-04-07T06:47:13.322Z,65345.09
2023-04-07T06:52:18.522Z,65253.22
2023-04-07T06:57:22.511Z,65302.28
2023-04-07T07:02:26.684Z,65341.13
2023-04-07T07:07:32.342Z,65291.44
2023-04-07T07:12:36.424Z,65306.44
2023-04-07T07:17:40.519Z,65309.00
2023-04-07T07:22:45.948Z,65275.03
2023-04-07T07:27:53.347Z,65312.72
2023-04-07T07:32:57.483Z,65333.06
2023-04-07T07:38:02.986Z,65287.28
2023-04-07T07:43:07.540Z,65296.34
2023-04-07T07:48:11.642Z,65343.16
2023-04-07T07:53:16.982Z,65338.38
2023-04-07T07:58:22.848Z,65326.13
2023-04-07T08:03:27.060Z,65352.22
2023-04-07T08:08:32.625Z,65338.91
2023-04-07T08:13:36.757Z,65348.91
2023-04-07T08:18:40.662Z,65282.50
2023-04-07T08:23:46.701Z,65346.25
2023-04-07T08:28:52.398Z,65426.78
2023-04-07T08:33:58.324Z,65468.88
2023-04-07T08:39:05.709Z,65412.50
2023-04-07T08:44:10.596Z,65400.25
2023-04-07T08:49:15.196Z,65418.25
2023-04-07T08:54:22.278Z,65362.97
2023-04-07T08:59:29.784Z,65340.06
2023-04-07T09:04:34.088Z,65370.94
2023-04-07T09:09:39.498Z,65375.63
2023-04-07T09:14:43.786Z,65411.53
2023-04-07T09:19:48.335Z,65370.31
2023-04-07T09:24:53.799Z,65324.53
2023-04-07T09:30:13.048Z,65371.28
2023-04-07T09:35:17.124Z,65362.88
2023-04-07T09:40:28.828Z,65359.16
2023-04-07T09:45:36.520Z,65417.72
2023-04-07T09:50:45.848Z,65436.91
2023-04-07T09:55:51.900Z,65431.03
2023-04-07T10:00:56.637Z,65429.97
2023-04-07T10:06:02.059Z,65417.19
2023-04-07T10:11:08.461Z,65349.13
2023-04-07T10:16:13.061Z,65475.38
2023-04-07T10:21:18.297Z,65414.22
2023-04-07T10:26:29.536Z,65423.78
2023-04-07T10:31:34.165Z,65415.59
2023-04-07T10:37:14.230Z,65408.66
2023-04-07T10:42:48.535Z,65377.22
2023-04-07T10:48:12.843Z,65441.16
2023-04-07T10:53:17.554Z,65402.28
2023-04-07T10:58:28.953Z,65399.28
2023-04-07T11:03:35.452Z,65392.88
2023-04-07T11:08:41.840Z,65392.25
2023-04-07T11:13:48.877Z,65428.91
2023-04-07T11:18:59.163Z,65406.75
2023-04-07T11:24:03.182Z,65464.59
2023-04-07T11:29:09.196Z,65553.66
2023-04-07T11:34:13.223Z,65513.66
2023-04-07T11:39:21.772Z,65479.00
2023-04-07T11:44:27.290Z,65486.47
2023-04-07T11:49:31.914Z,65549.38
2023-04-07T11:54:43.444Z,65637.59
2023-04-07T11:59:49.157Z,65722.91
2023-04-07T12:04:57.422Z,65716.31
2023-04-07T12:10:20.151Z,65578.16
2023-04-07T12:15:25.523Z,65687.13
2023-04-07T12:20:29.653Z,65696.63
2023-04-07T12:25:33.535Z,65732.50
2023-04-07T12:30:38.902Z,65851.25
2023-04-07T12:35:42.877Z,65785.91
2023-04-07T12:40:46.758Z,65823.16
2023-04-07T12:45:52.234Z,65762.50
2023-04-07T12:50:56.715Z,65745.75
2023-04-07T12:56:00.861Z,65809.47
2023-04-07T13:01:06.899Z,65761.44
2023-04-07T13:06:10.974Z,65826.38
2023-04-07T13:11:14.920Z,65843.66
2023-04-07T13:16:20.517Z,65876.63
2023-04-07T13:21:42.586Z,65822.38
2023-04-07T13:26:48.934Z,65867.09
2023-04-07T13:31:54.389Z,65902.47
2023-04-07T13:36:58.303Z,65907.81
2023-04-07T13:42:02.552Z,65972.66
2023-04-07T13:47:08.718Z,65882.16
2023-04-07T13:52:13.586Z,65865.03
2023-04-07T13:57:20.924Z,65854.59
2023-04-07T14:02:28.175Z,65910.41
2023-04-07T14:07:32.870Z,65825.03
2023-04-07T14:12:37.156Z,65735.28
2023-04-07T14:17:42.568Z,65775.06
2023-04-07T14:22:46.571Z,65859.25
2023-04-07T14:27:51.284Z,65810.53
2023-04-07T14:32:56.631Z,65806.25
2023-04-07T14:38:00.760Z,65745.97
2023-04-07T14:43:07.647Z,65744.91
2023-04-07T14:48:13.733Z,65756.44
2023-04-07T14:53:17.964Z,65812.56
2023-04-07T14:58:21.971Z,65743.72
2023-04-07T15:03:27.585Z,65753.88
2023-04-07T15:08:31.820Z,65765.63
2023-04-07T15:13:36.177Z,65789.56
2023-04-07T15:18:44.561Z,65798.78
2023-04-07T15:23:48.899Z,65787.13
2023-04-07T15:28:53.016Z,65818.44
2023-04-07T15:33:58.697Z,65741.59
2023-04-07T15:39:05.230Z,65757.72
2023-04-07T15:44:09.306Z,65660.53
2023-04-07T15:49:19.997Z,65718.09
2023-04-07T15:54:23.901Z,65819.09
2023-04-07T15:59:30.940Z,65806.25
2023-04-07T16:04:36.874Z,65767.34
2023-04-07T16:09:40.819Z,65694.94
2023-04-07T16:14:45.181Z,65771.50
2023-04-07T16:19:51.111Z,65737.94
2023-04-07T16:24:55.212Z,65790.94
2023-04-07T16:29:59.131Z,65811.16
2023-04-07T16:35:04.640Z,65733.03
2023-04-07T16:40:10.276Z,65738.94
2023-04-07T16:45:14.591Z,65773.63
2023-04-07T16:50:20.179Z,65754.50
2023-04-07T16:55:24.526Z,65710.09
2023-04-07T17:00:28.526Z,65705.38
2023-04-07T17:05:33.985Z,65724.41
2023-04-07T17:10:37.954Z,65732.59
2023-04-07T17:15:42.024Z,65700.38
2023-04-07T17:20:47.591Z,65700.28
2023-04-07T17:25:52.263Z,65673.25
2023-04-07T17:30:56.271Z,65668.44
2023-04-07T17:36:03.565Z,65693.44
2023-04-07T17:41:07.793Z,65693.63
2023-04-07T17:46:11.794Z,65683.19
2023-04-07T17:51:17.494Z,65692.91
2023-04-07T17:56:22.252Z,65685.34
2023-04-07T18:01:26.799Z,65686.50
2023-04-07T18:06:32.407Z,65711.59
2023-04-07T18:11:36.340Z,65709.88
2023-04-07T18:16:40.534Z,65702.72
2023-04-07T18:21:45.973Z,65731.53
2023-04-07T18:26:50.134Z,65736.88
2023-04-07T18:31:54.258Z,65581.91
2023-04-07T18:36:59.556Z,65638.47
2023-04-07T18:42:03.844Z,65669.50
2023-04-07T18:47:08.101Z,65656.06
2023-04-07T18:52:13.829Z,65662.69
2023-04-07T18:57:18.922Z,65674.31
2023-04-07T19:02:23.013Z,65637.41
2023-04-07T19:07:28.666Z,65610.63
2023-04-07T19:12:32.635Z,65634.91
2023-04-07T19:17:37.472Z,65576.66
2023-04-07T19:22:44.798Z,65547.25
2023-04-07T19:27:49.050Z,65587.97
2023-04-07T19:32:53.523Z,65585.75
2023-04-07T19:37:59.272Z,65599.59
2023-04-07T19:43:03.260Z,65551.50
2023-04-07T19:48:07.987Z,65625.84
2023-04-07T19:53:16.145Z,65643.25
2023-04-07T19:58:21.769Z,65719.78
2023-04-07T20:03:25.735Z,65729.31
2023-04-07T20:08:31.085Z,65718.00
2023-04-07T20:13:35.258Z,65667.81
2023-04-07T20:18:39.399Z,65643.47
2023-04-07T20:23:44.654Z,65677.63
2023-04-07T20:28:48.912Z,65700.56
2023-04-07T20:33:53.220Z,65696.31
2023-04-07T20:38:58.833Z,65654.13
2023-04-07T20:44:03.385Z,65539.44
2023-04-07T20:49:08.134Z,65600.13
2023-04-07T20:54:13.525Z,65608.22
2023-04-07T20:59:17.460Z,65656.06
2023-04-07T21:04:21.564Z,65627.34
2023-04-07T21:09:27.241Z,65687.75
2023-04-07T21:14:32.012Z,65693.63
2023-04-07T21:19:36.650Z,65721.84
2023-04-07T21:24:41.946Z,65554.38
2023-04-07T21:29:46.022Z,65474.31
2023-04-07T21:34:53.291Z,65542.44
2023-04-07T21:39:58.863Z,65526.22
2023-04-07T21:45:02.820Z,65539.22
2023-04-07T21:50:08.808Z,65507.34
2023-04-07T21:55:14.214Z,65576.66
2023-04-07T22:00:18.227Z,65534.63
2023-04-07T22:05:22.714Z,65515.97
2023-04-07T22:10:31.631Z,65482.94
2023-04-07T22:15:35.452Z,65449.78
2023-04-07T22:20:39.474Z,65487.09
2023-04-07T22:25:44.982Z,65410.28
2023-04-07T22:30:48.980Z,65364.56
2023-04-07T22:35:53.049Z,65343.25
2023-04-07T22:40:58.450Z,65337.72
2023-04-07T22:46:02.376Z,65352.22
2023-04-07T22:51:07.641Z,65374.38
2023-04-07T22:56:13.575Z,65368.72
2023-04-07T23:01:17.551Z,65405.03
2023-04-07T23:06:21.554Z,65385.22
2023-04-07T23:11:27.128Z,65401.66
2023-04-07T23:16:31.126Z,65352.75
2023-04-07T23:21:35.078Z,65334.22
2023-04-07T23:26:40.575Z,65339.97
2023-04-07T23:31:44.694Z,65340.16
2023-04-07T23:36:48.620Z,65384.38
2023-04-07T23:41:53.930Z,65398.53
2023-04-07T23:46:57.868Z,65385.44
2023-04-07T23:52:01.825Z,65410.28
2023-04-07T23:57:07.503Z,65418.47
